createdAt,value
2023-03-01T00:05:02.548Z,6.5
2023-03-01T00:10:37.841Z,6.5
2023-03-01T00:16:14.803Z,6.5
2023-03-01T00:21:51.569Z,6.5
2023-03-01T00:27:27.738Z,6.4
2023-03-01T00:33:02.708Z,6.4
2023-03-01T00:38:39.026Z,6.5
2023-03-01T00:44:19.891Z,6.5
2023-03-01T00:49:56.472Z,6.5
2023-03-01T00:55:31.994Z,6.4
2023-03-01T01:01:10.546Z,6.4
2023-03-01T01:06:46.093Z,6.3
2023-03-01T01:12:21.492Z,6.4
2023-03-01T01:17:59.577Z,6.4
2023-03-01T01:23:35.409Z,6.3
2023-03-01T01:29:10.325Z,6.3
2023-03-01T01:34:46.515Z,6.2
2023-03-01T01:40:21.744Z,6.2
2023-03-01T01:45:58.615Z,6.1
2023-03-01T01:51:34.365Z,6
2023-03-01T01:57:10.992Z,5.8
2023-03-01T02:02:56.499Z,5.7
2023-03-01T02:08:33.524Z,5.6
2023-03-01T02:14:28.442Z,5.5
2023-03-01T02:20:03.600Z,5.5
2023-03-01T02:25:46.579Z,5.4
2023-03-01T02:31:43.108Z,5.4
2023-03-01T02:37:19.844Z,5.5
2023-03-01T02:42:54.919Z,5.4
2023-03-01T02:48:30.205Z,5.3
2023-03-01T02:54:17.483Z,5.2
2023-03-01T03:00:00.174Z,5.1
2023-03-01T03:05:35.256Z,5
2023-03-01T03:11:10.730Z,5
2023-03-01T03:16:45.964Z,4.9
2023-03-01T03:22:58.057Z,4.7
2023-03-01T03:28:32.938Z,4.6
2023-03-01T03:34:35.834Z,4.5
2023-03-01T03:40:20.699Z,4.5
2023-03-01T03:45:58.854Z,4.5
2023-03-01T03:51:35.477Z,4.5
2023-03-01T03:57:10.693Z,4.5
2023-03-01T04:02:45.712Z,4.4
2023-03-01T04:08:21.669Z,4.3
2023-03-01T04:14:07.190Z,4.3
2023-03-01T04:20:03.876Z,4.3
2023-03-01T04:25:53.167Z,4.3
2023-03-01T04:31:28.027Z,4.3
2023-03-01T04:37:04.037Z,4.3
2023-03-01T04:42:50.809Z,4.2
2023-03-01T04:48:25.834Z,4.1
2023-03-01T04:54:04.497Z,4.1
2023-03-01T04:59:39.626Z,4
2023-03-01T05:05:37.730Z,3.8
2023-03-01T05:11:12.925Z,3.7
2023-03-01T05:16:50.200Z,3.6
2023-03-01T05:22:25.315Z,3.5
2023-03-01T05:28:00.851Z,3.5
2023-03-01T05:33:37.364Z,3.4
2023-03-01T05:39:13.730Z,3.3
2023-03-01T05:44:57.950Z,3.3
2023-03-01T05:50:34.072Z,3.4
2023-03-01T05:56:30.123Z,3.5
2023-03-01T06:02:11.264Z,3.6
2023-03-01T06:07:50.536Z,3.6
2023-03-01T06:13:46.418Z,3.6
2023-03-01T06:19:21.298Z,3.5
2023-03-01T06:24:56.676Z,3.4
2023-03-01T06:30:32.836Z,1.7
2023-03-01T06:36:12.469Z,0.2
2023-03-01T06:41:47.667Z,-0.2
2023-03-01T06:47:33.708Z,-0.5
2023-03-01T06:54:01.334Z,-0.5
2023-03-01T06:59:43.811Z,-0.3
2023-03-01T07:05:24.480Z,-0.1
2023-03-01T07:10:59.400Z,-0.2
2023-03-01T07:16:35.329Z,-0.2
2023-03-01T07:22:15.458Z,-0.1
2023-03-01T07:27:50.575Z,0.1
2023-03-01T07:33:41.120Z,0.4
2023-03-01T07:39:29.314Z,0.7
2023-03-01T07:45:09.541Z,0.9
2023-03-01T07:50:52.666Z,1.1
2023-03-01T07:56:29.804Z,1.2
2023-03-01T08:02:08.699Z,1.5
2023-03-01T08:08:07.067Z,1.7
2023-03-01T08:13:39.828Z,1.9
2023-03-01T08:19:16.701Z,2.1
2023-03-01T08:24:53.725Z,2.4
2023-03-01T08:30:33.853Z,2.6
2023-03-01T08:36:11.875Z,2.7
2023-03-01T08:41:55.251Z,3.1
2023-03-01T08:47:34.265Z,3.3
2023-03-01T08:53:41.706Z,3.3
2023-03-01T08:59:44.951Z,3.9
2023-03-01T09:05:25.873Z,4.1
2023-03-01T09:11:01.197Z,4
2023-03-01T09:16:48.521Z,4.2
2023-03-01T09:22:24.293Z,4.4
2023-03-01T09:27:59.524Z,4.6
2023-03-01T09:33:34.923Z,4.7
2023-03-01T09:39:10.402Z,4.9
2023-03-01T09:44:45.939Z,5.5
2023-03-01T09:50:21.372Z,6.4
2023-03-01T09:56:06.236Z,7.2
2023-03-01T10:01:50.879Z,8
2023-03-01T10:07:28.649Z,8.3
2023-03-01T10:13:10.475Z,9.1
2023-03-01T10:18:52.823Z,9.4
2023-03-01T10:24:28.240Z,8.9
2023-03-01T10:30:05.671Z,8.3
2023-03-01T10:35:45.537Z,8
2023-03-01T10:41:21.926Z,9.3
2023-03-01T10:46:57.641Z,10.3
2023-03-01T10:52:33.349Z,10.2
2023-03-01T10:58:30.019Z,10.5
2023-03-01T11:04:05.663Z,11
2023-03-01T11:09:42.419Z,10.6
2023-03-01T11:15:25.785Z,8.5
2023-03-01T11:21:01.472Z,8.7
2023-03-01T11:26:39.911Z,8.4
2023-03-01T11:32:15.059Z,7.5
2023-03-01T11:38:06.906Z,8.4
2023-03-01T11:43:51.700Z,9
2023-03-01T11:49:30.206Z,8.9
2023-03-01T11:55:10.581Z,9.2
2023-03-01T12:00:52.069Z,9.4
2023-03-01T12:06:28.936Z,9.8
2023-03-01T12:12:20.996Z,8.7
2023-03-01T12:18:07.289Z,9.7
2023-03-01T12:23:42.563Z,10.1
2023-03-01T12:29:19.713Z,9.3
2023-03-01T12:34:55.498Z,9.5
2023-03-01T12:40:35.673Z,7.7
2023-03-01T12:46:15.397Z,8.5
2023-03-01T12:52:55.519Z,8.4
2023-03-01T12:58:49.483Z,9.6
2023-03-01T13:04:35.309Z,10.2
2023-03-01T13:10:18.019Z,9.3
2023-03-01T13:15:53.515Z,8.3
2023-03-01T13:21:32.250Z,9.8
2023-03-01T13:27:07.500Z,11.1
2023-03-01T13:32:44.600Z,10.2
2023-03-01T13:38:22.299Z,12.1
2023-03-01T13:44:46.348Z,12.2
2023-03-01T13:50:31.659Z,13.4
2023-03-01T13:56:19.366Z,12.2
2023-03-01T14:02:55.977Z,11
2023-03-01T14:08:59.797Z,10
2023-03-01T14:14:43.410Z,8.8
2023-03-01T14:20:22.386Z,8.7
2023-03-01T14:25:59.310Z,9.3
2023-03-01T14:31:38.535Z,12.9
2023-03-01T14:37:30.284Z,22.1
2023-03-01T14:43:08.254Z,22.2
2023-03-01T14:49:09.306Z,21.6
2023-03-01T14:54:45.653Z,14.5
2023-03-01T15:00:21.074Z,15.8
2023-03-01T15:06:41.934Z,22.2
2023-03-01T15:12:17.456Z,23
2023-03-01T15:18:00.372Z,18.1
2023-03-01T15:23:56.620Z,16.1
2023-03-01T15:29:58.596Z,13.8
2023-03-01T15:35:33.819Z,13
2023-03-01T15:41:17.786Z,16
2023-03-01T15:46:53.141Z,13.2
2023-03-01T15:52:30.001Z,12.3
2023-03-01T15:58:08.937Z,11.5
2023-03-01T16:03:46.198Z,9.5
2023-03-01T16:09:32.841Z,8.5
2023-03-01T16:15:10.907Z,8.1
2023-03-01T16:21:07.759Z,7.8
2023-03-01T16:26:55.292Z,7.4
2023-03-01T16:32:35.874Z,7
2023-03-01T16:38:21.633Z,7
2023-03-01T16:44:44.308Z,6.7
2023-03-01T16:50:44.510Z,6.5
2023-03-01T16:56:19.865Z,6.3
2023-03-01T17:01:55.950Z,6.1
2023-03-01T17:07:36.686Z,5.8
2023-03-01T17:13:18.898Z,5.7
2023-03-01T17:18:58.343Z,5.3
2023-03-01T17:24:38.912Z,5.1
2023-03-01T17:30:14.522Z,5.1
2023-03-01T17:35:59.046Z,4.8
2023-03-01T17:41:35.842Z,4.6
2023-03-01T17:47:18.850Z,4.4
2023-03-01T17:53:06.189Z,4.3
2023-03-01T17:58:48.997Z,4.1
2023-03-01T18:06:08.142Z,3.8
2023-03-01T18:11:43.373Z,3.7
2023-03-01T18:17:24.008Z,3.6
2023-03-01T18:23:22.946Z,3.4
2023-03-01T18:28:58.954Z,3.6
2023-03-01T18:34:34.274Z,3.3
2023-03-01T18:40:10.069Z,3.4
2023-03-01T18:45:48.600Z,3.4
2023-03-01T18:51:24.651Z,3.1
2023-03-01T18:57:05.285Z,3
2023-03-01T19:02:49.293Z,2.8
2023-03-01T19:08:25.142Z,2.9
2023-03-01T19:14:03.776Z,2.8
2023-03-01T19:20:11.482Z,2.7
2023-03-01T19:25:46.994Z,2.5
2023-03-01T19:31:26.040Z,2.5
2023-03-01T19:37:14.163Z,2.4
2023-03-01T19:42:49.563Z,2.2
2023-03-01T19:48:24.512Z,2.2
2023-03-01T19:53:59.873Z,2
2023-03-01T19:59:35.984Z,1.9
2023-03-01T20:05:11.451Z,1.6
2023-03-01T20:10:47.223Z,1.6
2023-03-01T20:17:04.453Z,1.5
2023-03-01T20:22:40.606Z,1.5
2023-03-01T20:28:17.378Z,1.5
2023-03-01T20:33:52.258Z,1.4
2023-03-01T20:39:27.895Z,1.3
2023-03-01T20:45:52.165Z,1.2
2023-03-01T20:53:13.091Z,1.2
2023-03-01T20:58:57.392Z,1.1
2023-03-01T21:04:34.516Z,1.1
2023-03-01T21:10:27.099Z,1.1
2023-03-01T21:16:03.553Z,1
2023-03-01T21:21:49.008Z,0.9
2023-03-01T21:27:25.188Z,0.9
2023-03-01T21:33:08.386Z,0.8
2023-03-01T21:38:55.279Z,0.9
2023-03-01T21:44:36.004Z,0.9
2023-03-01T21:50:11.175Z,0.8
2023-03-01T21:55:46.487Z,0.8
2023-03-01T22:01:28.980Z,1.9
2023-03-01T22:07:09.712Z,2.6
2023-03-01T22:13:02.093Z,3
2023-03-01T22:18:39.359Z,3.1
2023-03-01T22:24:22.709Z,3.3
2023-03-01T22:29:59.139Z,3.4
2023-03-01T22:35:34.964Z,3.5
2023-03-01T22:41:11.231Z,3.5
2023-03-01T22:46:52.155Z,3.6
2023-03-01T22:52:27.308Z,3.6
2023-03-01T22:58:05.468Z,3.6
2023-03-01T23:04:01.504Z,3.6
2023-03-01T23:09:36.580Z,3.6
2023-03-01T23:15:12.156Z,3.6
2023-03-01T23:20:53.817Z,3.7
2023-03-01T23:27:14.666Z,3.7
2023-03-01T23:32:49.856Z,3.7
2023-03-01T23:38:26.152Z,3.7
2023-03-01T23:44:22.866Z,3.7
2023-03-01T23:49:58.112Z,3.7
2023-03-01T23:55:33.431Z,3.7
